createdAt,value
2017-10-07T00:00:06.903Z,19.70
2017-10-07T00:02:36.110Z,22.57
2017-10-07T00:05:06.120Z,20.23
2017-10-07T00:07:35.326Z,15.20
2017-10-07T00:10:04.556Z,17.93
2017-10-07T00:12:35.296Z,17.40
2017-10-07T00:15:04.515Z,19.23
2017-10-07T00:17:34.534Z,24.17
2017-10-07T00:20:03.743Z,17.10
2017-10-07T00:22:32.980Z,17.20
2017-10-07T00:25:02.198Z,21.77
2017-10-07T00:27:31.430Z,29.77
2017-10-07T00:30:01.404Z,18.90
2017-10-07T00:32:30.722Z,23.10
2017-10-07T00:35:00.705Z,21.00
2017-10-07T00:37:29.935Z,18.17
2017-10-07T00:39:59.151Z,23.10
2017-10-07T00:42:29.119Z,19.10
2017-10-07T00:44:58.354Z,21.03
2017-10-07T00:47:28.327Z,21.90
2017-10-07T00:49:57.567Z,19.90
2017-10-07T00:52:27.542Z,27.37
2017-10-07T00:54:56.771Z,27.43
2017-10-07T00:57:25.987Z,21.90
2017-10-07T00:59:55.951Z,31.07
2017-10-07T01:02:25.955Z,27.13
2017-10-07T01:04:55.163Z,27.00
2017-10-07T01:07:24.395Z,25.77
2017-10-07T01:09:54.474Z,25.70
2017-10-07T01:12:23.676Z,30.07
2017-10-07T01:14:52.888Z,30.10
2017-10-07T01:17:22.118Z,35.20
2017-10-07T01:19:52.211Z,35.97
2017-10-07T01:22:21.436Z,35.10
2017-10-07T01:24:51.416Z,31.00
2017-10-07T01:27:20.653Z,28.97
2017-10-07T01:29:50.643Z,31.90
2017-10-07T01:32:19.842Z,27.13
2017-10-07T01:34:49.078Z,26.77
2017-10-07T01:37:18.291Z,31.90
2017-10-07T01:39:47.518Z,33.57
2017-10-07T01:42:16.746Z,26.20
2017-10-07T01:44:46.732Z,29.40
2017-10-07T01:47:15.944Z,29.97
2017-10-07T01:49:45.191Z,19.20
2017-10-07T01:52:14.443Z,26.83
2017-10-07T01:54:43.658Z,27.10
2017-10-07T01:57:13.661Z,23.57
2017-10-07T01:59:42.867Z,26.03
2017-10-07T02:02:12.861Z,21.10
2017-10-07T02:04:42.109Z,18.50
2017-10-07T02:07:11.311Z,20.30
2017-10-07T02:09:40.523Z,16.60
2017-10-07T02:12:09.728Z,16.60
2017-10-07T02:14:38.962Z,17.90
2017-10-07T02:17:08.190Z,20.40
2017-10-07T02:19:37.402Z,19.43
2017-10-07T02:22:06.622Z,16.47
2017-10-07T02:24:36.603Z,14.20
2017-10-07T02:27:05.839Z,17.27
2017-10-07T02:29:35.054Z,11.93
2017-10-07T02:32:04.284Z,14.57
2017-10-07T02:34:34.287Z,14.23
2017-10-07T02:37:03.485Z,15.97
2017-10-07T02:39:33.481Z,12.83
2017-10-07T02:42:02.731Z,16.10
2017-10-07T02:44:31.961Z,15.50
2017-10-07T02:47:01.205Z,16.93
2017-10-07T02:49:31.190Z,13.83
2017-10-07T02:52:01.191Z,12.60
2017-10-07T02:54:30.460Z,16.50
2017-10-07T02:56:59.707Z,11.30
2017-10-07T02:59:28.929Z,10.30
2017-10-07T03:01:58.936Z,13.50
2017-10-07T03:04:28.138Z,15.73
2017-10-07T03:06:58.118Z,11.77
2017-10-07T03:09:27.314Z,12.50
2017-10-07T03:11:56.546Z,11.37
2017-10-07T03:14:26.519Z,11.53
2017-10-07T03:16:56.550Z,14.20
2017-10-07T03:19:25.760Z,8.40
2017-10-07T03:21:54.963Z,13.47
2017-10-07T03:24:24.954Z,8.23
2017-10-07T03:26:54.159Z,12.53
2017-10-07T03:29:23.383Z,9.53
2017-10-07T03:31:53.367Z,10.40
2017-10-07T03:34:22.588Z,22.20
2017-10-07T03:36:51.799Z,8.93
2017-10-07T03:39:21.797Z,11.73
2017-10-07T03:41:51.002Z,14.47
2017-10-07T03:44:21.012Z,12.50
2017-10-07T03:46:50.231Z,19.07
2017-10-07T03:49:20.201Z,9.30
2017-10-07T03:51:50.187Z,10.07
2017-10-07T03:54:19.426Z,18.67
2017-10-07T03:56:48.643Z,10.87
2017-10-07T03:59:17.843Z,16.63
2017-10-07T04:01:47.847Z,16.37
2017-10-07T04:04:17.066Z,20.53
2017-10-07T04:06:47.073Z,14.60
2017-10-07T04:09:16.265Z,12.70
2017-10-07T04:11:45.475Z,10.33
2017-10-07T04:14:15.456Z,14.67
2017-10-07T04:16:44.651Z,14.70
2017-10-07T04:19:13.892Z,18.00
2017-10-07T04:21:43.875Z,29.57
2017-10-07T04:24:13.115Z,12.23
2017-10-07T04:26:42.313Z,14.73
2017-10-07T04:29:11.520Z,10.77
2017-10-07T04:31:40.814Z,6.77
2017-10-07T04:34:10.029Z,7.57
2017-10-07T04:36:39.243Z,10.13
2017-10-07T04:39:08.440Z,9.23
2017-10-07T04:41:37.694Z,8.13
2017-10-07T04:44:06.909Z,14.83
2017-10-07T04:46:36.147Z,24.63
2017-10-07T04:49:05.335Z,6.40
2017-10-07T04:51:34.560Z,12.23
2017-10-07T04:54:04.543Z,13.10
2017-10-07T04:56:33.755Z,12.83
2017-10-07T04:59:02.964Z,19.10
2017-10-07T05:01:32.166Z,11.53
2017-10-07T05:04:01.387Z,9.47
2017-10-07T05:06:31.349Z,14.37
2017-10-07T05:09:00.599Z,8.80
2017-10-07T05:11:30.567Z,12.10
2017-10-07T05:13:59.783Z,15.13
2017-10-07T05:16:29.151Z,10.60
2017-10-07T05:18:58.338Z,11.80
2017-10-07T05:21:27.563Z,9.13
2017-10-07T05:23:56.771Z,13.60
2017-10-07T05:26:26.110Z,9.47
2017-10-07T05:28:55.331Z,10.33
2017-10-07T05:31:24.587Z,11.40
2017-10-07T05:33:53.783Z,11.73
2017-10-07T05:36:23.757Z,6.10
2017-10-07T05:38:52.970Z,9.30
2017-10-07T05:41:22.179Z,11.43
2017-10-07T05:43:51.403Z,13.80
2017-10-07T05:46:20.703Z,9.53
2017-10-07T05:48:50.780Z,7.30
2017-10-07T05:51:19.983Z,10.17
2017-10-07T05:53:49.228Z,7.90
2017-10-07T05:56:18.502Z,6.03
2017-10-07T05:58:48.661Z,8.00
2017-10-07T06:01:18.592Z,8.07
2017-10-07T06:03:47.819Z,5.63
2017-10-07T06:06:17.095Z,10.90
2017-10-07T06:08:46.345Z,12.87
2017-10-07T06:11:16.318Z,6.47
2017-10-07T06:13:45.519Z,7.33
2017-10-07T06:16:14.772Z,10.30
2017-10-07T06:18:44.006Z,10.83
2017-10-07T06:21:13.223Z,8.03
2017-10-07T06:23:42.443Z,8.60
2017-10-07T06:26:12.422Z,5.50
2017-10-07T06:28:41.623Z,14.60
2017-10-07T06:31:10.852Z,6.80
2017-10-07T06:33:40.852Z,8.07
2017-10-07T06:36:10.054Z,9.20
2017-10-07T06:38:39.252Z,8.63
2017-10-07T06:41:09.227Z,7.57
2017-10-07T06:43:38.527Z,7.97
2017-10-07T06:46:07.708Z,7.47
2017-10-07T06:48:37.664Z,8.97
2017-10-07T06:51:07.063Z,10.43
2017-10-07T06:53:36.339Z,10.90
2017-10-07T06:56:05.570Z,7.67
2017-10-07T06:58:34.800Z,7.03
2017-10-07T07:01:04.360Z,6.37
2017-10-07T07:03:33.572Z,8.50
2017-10-07T07:06:02.766Z,10.73
2017-10-07T07:08:31.995Z,5.70
2017-10-07T07:11:01.206Z,7.53
2017-10-07T07:13:30.428Z,6.07
2017-10-07T07:15:59.658Z,9.07
2017-10-07T07:18:28.860Z,7.70
2017-10-07T07:20:58.067Z,5.47
2017-10-07T07:23:28.066Z,8.23
2017-10-07T07:25:57.283Z,7.10
2017-10-07T07:28:27.275Z,7.67
2017-10-07T07:30:56.528Z,9.90
2017-10-07T07:33:25.763Z,6.60
2017-10-07T07:35:55.003Z,8.33
2017-10-07T07:38:24.211Z,8.13
2017-10-07T07:40:53.459Z,8.00
2017-10-07T07:43:22.685Z,3.93
2017-10-07T07:45:52.694Z,8.60
2017-10-07T07:48:22.675Z,6.53
2017-10-07T07:50:51.916Z,5.43
2017-10-07T07:53:21.901Z,4.80
2017-10-07T07:55:51.143Z,6.33
2017-10-07T07:58:20.368Z,10.80
2017-10-07T08:00:49.601Z,8.10
2017-10-07T08:03:18.823Z,4.83
2017-10-07T08:05:48.801Z,9.23
2017-10-07T08:08:18.012Z,6.83
2017-10-07T08:10:47.248Z,4.57
2017-10-07T08:13:16.493Z,6.73
2017-10-07T08:15:45.727Z,11.37
2017-10-07T08:18:14.936Z,7.07
2017-10-07T08:20:44.940Z,7.07
2017-10-07T08:23:15.013Z,4.87
2017-10-07T08:25:45.017Z,7.10
2017-10-07T08:28:14.218Z,5.30
2017-10-07T08:30:43.467Z,5.17
2017-10-07T08:33:13.524Z,6.47
2017-10-07T08:35:42.781Z,8.13
2017-10-07T08:38:12.030Z,6.83
2017-10-07T08:40:41.260Z,7.90
2017-10-07T08:43:10.488Z,6.20
2017-10-07T08:45:39.729Z,6.43
2017-10-07T08:48:08.983Z,8.10
2017-10-07T08:50:38.965Z,5.87
2017-10-07T08:53:08.176Z,5.50
2017-10-07T08:55:37.402Z,7.10
2017-10-07T08:58:06.634Z,13.10
2017-10-07T09:00:35.861Z,7.50
2017-10-07T09:03:05.107Z,5.90
2017-10-07T09:05:34.327Z,5.70
2017-10-07T09:08:03.524Z,9.00
2017-10-07T09:10:32.740Z,4.83
2017-10-07T09:13:02.042Z,9.00
2017-10-07T09:15:31.291Z,8.13
2017-10-07T09:18:01.287Z,8.60
2017-10-07T09:20:31.275Z,6.20
2017-10-07T09:23:00.503Z,10.40
2017-10-07T09:25:30.493Z,10.00
2017-10-07T09:27:59.714Z,8.07
2017-10-07T09:30:29.733Z,9.83
2017-10-07T09:32:59.738Z,10.00
2017-10-07T09:35:29.751Z,10.03
2017-10-07T09:37:59.795Z,8.93
2017-10-07T09:40:29.041Z,8.93
2017-10-07T09:42:58.249Z,6.40
2017-10-07T09:45:27.477Z,3.23
2017-10-07T09:47:56.971Z,6.40
2017-10-07T09:50:26.214Z,9.20
2017-10-07T09:52:55.525Z,7.67
2017-10-07T09:55:24.755Z,5.50
2017-10-07T09:57:53.963Z,4.50
2017-10-07T10:00:23.971Z,4.80
2017-10-07T10:02:53.674Z,5.83
2017-10-07T10:05:25.626Z,11.77
2017-10-07T10:07:55.033Z,12.90
2017-10-07T10:10:26.239Z,8.47
2017-10-07T10:12:55.617Z,7.17
2017-10-07T10:15:25.908Z,5.43
2017-10-07T10:17:55.159Z,4.20
2017-10-07T10:20:24.434Z,8.60
2017-10-07T10:22:53.672Z,5.63
2017-10-07T10:25:22.914Z,6.87
2017-10-07T10:27:52.957Z,4.23
2017-10-07T10:30:22.196Z,6.60
2017-10-07T10:32:51.433Z,6.50
2017-10-07T10:35:21.455Z,5.37
2017-10-07T10:37:51.428Z,4.90
2017-10-07T10:40:20.683Z,10.23
2017-10-07T10:42:49.935Z,9.43
2017-10-07T10:45:19.146Z,6.43
2017-10-07T10:47:48.385Z,8.73
2017-10-07T10:50:17.603Z,4.40
2017-10-07T10:52:46.859Z,3.97
2017-10-07T10:55:16.880Z,11.07
2017-10-07T10:57:46.114Z,7.13
2017-10-07T11:00:15.379Z,4.63
2017-10-07T11:02:44.690Z,4.70
2017-10-07T11:05:13.926Z,6.00
2017-10-07T11:07:43.170Z,3.73
2017-10-07T11:10:12.440Z,7.23
2017-10-07T11:12:41.671Z,6.40
2017-10-07T11:15:10.935Z,7.53
2017-10-07T11:17:40.164Z,7.73
2017-10-07T11:20:10.185Z,3.60
2017-10-07T11:22:39.429Z,6.20
2017-10-07T11:25:08.654Z,10.27
2017-10-07T11:27:37.843Z,5.80
2017-10-07T11:30:07.258Z,3.20
2017-10-07T11:32:37.244Z,11.27
2017-10-07T11:35:06.473Z,6.07
2017-10-07T11:37:35.674Z,7.77
2017-10-07T11:40:05.724Z,7.17
2017-10-07T11:42:35.032Z,11.90
2017-10-07T11:45:04.235Z,6.57
2017-10-07T11:47:33.467Z,5.67
2017-10-07T11:50:02.728Z,9.10
2017-10-07T11:52:31.962Z,7.07
2017-10-07T11:55:01.196Z,15.70
2017-10-07T11:57:30.405Z,5.50
2017-10-07T11:59:59.648Z,6.13
2017-10-07T12:02:28.908Z,7.20
2017-10-07T12:04:58.169Z,5.03
2017-10-07T12:07:27.375Z,5.47
2017-10-07T12:09:56.655Z,4.40
2017-10-07T12:12:25.851Z,13.83
2017-10-07T12:14:55.088Z,11.50
2017-10-07T12:17:24.331Z,5.57
2017-10-07T12:19:53.559Z,3.20
2017-10-07T12:22:23.539Z,4.93
2017-10-07T12:24:52.783Z,7.47
2017-10-07T12:27:22.002Z,5.47
2017-10-07T12:29:51.265Z,4.60
2017-10-07T12:32:21.259Z,4.80
2017-10-07T12:34:50.588Z,4.50
2017-10-07T12:37:19.868Z,6.77
2017-10-07T12:39:49.075Z,5.80
2017-10-07T12:42:18.290Z,4.33
2017-10-07T12:44:48.406Z,7.10
2017-10-07T12:47:17.587Z,5.07
2017-10-07T12:49:46.868Z,6.23
2017-10-07T12:52:16.097Z,5.20
2017-10-07T12:54:46.106Z,2.93
2017-10-07T12:57:15.339Z,5.27
2017-10-07T12:59:44.543Z,4.00
2017-10-07T13:02:13.799Z,5.50
2017-10-07T13:04:43.015Z,4.77
2017-10-07T13:07:12.250Z,2.63
2017-10-07T13:09:41.497Z,3.20
2017-10-07T13:12:11.487Z,2.37
2017-10-07T13:14:40.735Z,2.93
2017-10-07T13:17:10.006Z,3.70
2017-10-07T13:19:39.268Z,3.50
2017-10-07T13:22:08.917Z,2.97
2017-10-07T13:24:39.689Z,9.83
2017-10-07T13:27:08.912Z,3.83
2017-10-07T13:29:38.895Z,2.70
2017-10-07T13:32:08.143Z,6.03
2017-10-07T13:34:37.364Z,2.73
2017-10-07T13:37:06.617Z,5.50
2017-10-07T13:39:35.855Z,3.30
2017-10-07T13:42:05.073Z,2.70
2017-10-07T13:44:34.344Z,5.40
2017-10-07T13:47:04.384Z,3.43
2017-10-07T13:49:33.646Z,6.00
2017-10-07T13:52:02.865Z,6.03
2017-10-07T13:54:32.908Z,3.23
2017-10-07T13:57:02.116Z,3.33
2017-10-07T13:59:31.345Z,6.93
2017-10-07T14:02:01.338Z,3.80
2017-10-07T14:04:30.584Z,3.43
2017-10-07T14:07:00.607Z,2.43
2017-10-07T14:09:30.691Z,6.13
2017-10-07T14:11:59.965Z,4.17
2017-10-07T14:14:29.193Z,2.63
2017-10-07T14:16:58.442Z,2.80
2017-10-07T14:19:27.661Z,4.43
2017-10-07T14:21:56.911Z,3.00
2017-10-07T14:24:26.186Z,2.70
2017-10-07T14:26:55.411Z,5.50
2017-10-07T14:29:25.467Z,3.07
2017-10-07T14:31:54.733Z,3.70
2017-10-07T14:34:24.723Z,3.47
2017-10-07T14:36:53.994Z,3.90
2017-10-07T14:39:23.273Z,4.03
2017-10-07T14:41:52.658Z,4.07
2017-10-07T14:44:21.924Z,3.80
2017-10-07T14:46:51.289Z,3.93
2017-10-07T14:49:20.500Z,5.40
2017-10-07T14:51:49.745Z,4.60
2017-10-07T14:54:19.747Z,6.20
2017-10-07T14:56:49.762Z,6.57
2017-10-07T14:59:18.989Z,7.40
2017-10-07T15:01:48.219Z,6.70
2017-10-07T15:04:17.518Z,6.53
2017-10-07T15:06:46.712Z,7.43
2017-10-07T15:09:15.997Z,7.23
2017-10-07T15:11:45.206Z,5.87
2017-10-07T15:14:14.444Z,5.93
2017-10-07T15:16:43.679Z,8.77
2017-10-07T15:19:12.915Z,9.93
2017-10-07T15:21:42.989Z,7.20
2017-10-07T15:24:12.240Z,5.60
2017-10-07T15:26:41.498Z,6.73
2017-10-07T15:29:10.703Z,7.30
2017-10-07T15:31:39.950Z,6.13
2017-10-07T15:34:09.197Z,9.10
2017-10-07T15:36:38.439Z,5.80
2017-10-07T15:39:07.708Z,4.53
2017-10-07T15:41:36.941Z,5.20
2017-10-07T15:44:06.199Z,5.90
2017-10-07T15:46:35.431Z,4.73
2017-10-07T15:49:04.664Z,10.10
2017-10-07T15:51:33.896Z,5.63
2017-10-07T15:54:03.134Z,5.00
2017-10-07T15:56:32.370Z,7.17
2017-10-07T15:59:01.636Z,4.97
2017-10-07T16:01:30.846Z,7.33
2017-10-07T16:04:00.134Z,4.70
2017-10-07T16:06:29.378Z,4.37
2017-10-07T16:08:58.679Z,4.57
2017-10-07T16:11:27.939Z,5.10
2017-10-07T16:13:57.947Z,6.07
2017-10-07T16:16:27.182Z,4.50
2017-10-07T16:18:56.415Z,3.63
2017-10-07T16:21:25.692Z,4.37
2017-10-07T16:23:54.919Z,4.90
2017-10-07T16:26:24.195Z,4.03
2017-10-07T16:28:53.390Z,5.00
2017-10-07T16:31:22.678Z,4.90
2017-10-07T16:33:52.686Z,5.30
2017-10-07T16:36:21.914Z,5.70
2017-10-07T16:38:51.164Z,5.37
2017-10-07T16:41:20.407Z,5.37
2017-10-07T16:43:49.649Z,4.23
2017-10-07T16:46:19.634Z,5.13
2017-10-07T16:48:49.826Z,5.07
2017-10-07T16:51:19.072Z,5.77
2017-10-07T16:53:48.311Z,5.83
2017-10-07T16:56:17.540Z,4.37
2017-10-07T16:58:46.757Z,5.20
2017-10-07T17:01:15.973Z,5.40
2017-10-07T17:03:45.233Z,5.43
2017-10-07T17:06:15.212Z,5.00
2017-10-07T17:08:44.447Z,4.47
2017-10-07T17:11:14.439Z,4.47
2017-10-07T17:13:44.045Z,5.30
2017-10-07T17:16:13.236Z,7.90
2017-10-07T17:18:42.455Z,5.43
2017-10-07T17:21:11.684Z,9.20
2017-10-07T17:23:40.881Z,6.73
2017-10-07T17:26:10.896Z,6.70
2017-10-07T17:28:40.149Z,7.83
2017-10-07T17:31:10.219Z,6.50
2017-10-07T17:33:40.161Z,9.63
2017-10-07T17:36:09.417Z,7.20
2017-10-07T17:38:38.728Z,8.50
2017-10-07T17:41:07.943Z,5.37
2017-10-07T17:43:37.246Z,5.50
2017-10-07T17:46:07.416Z,6.30
2017-10-07T17:48:36.651Z,5.23
2017-10-07T17:51:06.799Z,5.90
2017-10-07T17:53:36.063Z,3.83
2017-10-07T17:56:05.314Z,4.40
2017-10-07T17:58:34.546Z,6.30
2017-10-07T18:01:03.810Z,5.00
2017-10-07T18:03:33.048Z,5.20
2017-10-07T18:06:02.317Z,4.43
2017-10-07T18:08:31.545Z,5.10
2017-10-07T18:11:00.768Z,6.60
2017-10-07T18:13:30.858Z,4.60
2017-10-07T18:16:00.083Z,9.67
2017-10-07T18:18:30.109Z,8.23
2017-10-07T18:20:59.415Z,5.50
2017-10-07T18:23:28.696Z,10.43
2017-10-07T18:25:58.815Z,10.43
2017-10-07T18:28:29.011Z,6.33
2017-10-07T18:30:58.249Z,5.03
2017-10-07T18:33:27.475Z,5.20
2017-10-07T18:35:56.810Z,5.20
2017-10-07T18:38:26.041Z,4.97
2017-10-07T18:40:56.239Z,5.47
2017-10-07T18:43:26.280Z,7.23
2017-10-07T18:45:55.499Z,7.30
2017-10-07T18:48:24.704Z,13.50
2017-10-07T18:50:54.700Z,6.00
2017-10-07T18:53:24.682Z,5.20
2017-10-07T18:55:54.699Z,6.33
2017-10-07T18:58:23.924Z,4.70
2017-10-07T19:00:53.159Z,4.47
2017-10-07T19:03:22.429Z,13.17
2017-10-07T19:05:51.640Z,6.47
2017-10-07T19:08:20.898Z,5.03
2017-10-07T19:10:50.899Z,5.97
2017-10-07T19:13:20.148Z,6.60
2017-10-07T19:15:49.450Z,4.67
2017-10-07T19:18:18.658Z,5.60
2017-10-07T19:20:48.002Z,6.07
2017-10-07T19:23:17.202Z,5.53
2017-10-07T19:25:47.217Z,5.07
2017-10-07T19:28:17.209Z,4.53
2017-10-07T19:30:47.268Z,4.03
2017-10-07T19:33:16.569Z,4.43
2017-10-07T19:35:45.869Z,4.67
2017-10-07T19:38:15.839Z,4.60
2017-10-07T19:40:45.086Z,6.43
2017-10-07T19:43:14.318Z,3.90
2017-10-07T19:45:43.543Z,4.10
2017-10-07T19:48:12.759Z,4.20
2017-10-07T19:50:42.888Z,3.70
2017-10-07T19:53:12.204Z,4.50
2017-10-07T19:55:41.443Z,10.20
2017-10-07T19:58:10.737Z,3.27
2017-10-07T20:00:40.025Z,3.57
2017-10-07T20:03:09.258Z,3.17
2017-10-07T20:05:38.676Z,3.50
2017-10-07T20:08:08.680Z,3.17
2017-10-07T20:10:37.959Z,3.83
2017-10-07T20:13:07.189Z,3.70
2017-10-07T20:15:37.228Z,11.53
2017-10-07T20:18:06.573Z,4.23
2017-10-07T20:20:37.031Z,4.50
2017-10-07T20:23:09.232Z,5.10
2017-10-07T20:25:38.464Z,7.63
2017-10-07T20:28:07.714Z,5.93
2017-10-07T20:30:37.729Z,10.30
2017-10-07T20:33:06.927Z,6.83
2017-10-07T20:35:36.198Z,9.20
2017-10-07T20:38:05.372Z,7.10
2017-10-07T20:40:34.579Z,8.70
2017-10-07T20:43:03.833Z,9.10
2017-10-07T20:45:33.024Z,9.43
2017-10-07T20:48:02.242Z,7.90
2017-10-07T20:50:32.231Z,9.27
2017-10-07T20:53:02.227Z,7.10
2017-10-07T20:55:32.229Z,7.40
2017-10-07T20:58:01.521Z,6.50
2017-10-07T21:00:30.816Z,6.77
2017-10-07T21:03:00.073Z,5.53
2017-10-07T21:05:29.319Z,6.27
2017-10-07T21:07:58.548Z,5.07
2017-10-07T21:10:27.802Z,14.40
2017-10-07T21:12:57.078Z,9.47
2017-10-07T21:15:26.305Z,5.13
2017-10-07T21:17:55.541Z,6.60
2017-10-07T21:20:25.029Z,7.13
2017-10-07T21:22:55.019Z,6.80
2017-10-07T21:25:24.383Z,5.47
2017-10-07T21:27:53.729Z,5.50
2017-10-07T21:30:22.979Z,6.07
2017-10-07T21:32:52.244Z,5.30
2017-10-07T21:35:22.262Z,4.60
2017-10-07T21:37:51.534Z,5.27
2017-10-07T21:40:20.726Z,5.57
2017-10-07T21:42:49.999Z,5.50
2017-10-07T21:45:19.274Z,12.63
2017-10-07T21:47:48.538Z,6.17
2017-10-07T21:50:17.755Z,6.40
2017-10-07T21:52:47.771Z,14.60
2017-10-07T21:55:17.769Z,17.90
2017-10-07T21:57:47.014Z,8.40
2017-10-07T22:00:16.255Z,6.20
2017-10-07T22:02:45.482Z,7.57
2017-10-07T22:05:15.485Z,7.50
2017-10-07T22:07:45.005Z,8.70
2017-10-07T22:10:14.988Z,8.47
2017-10-07T22:12:44.218Z,8.00
2017-10-07T22:15:14.227Z,7.30
2017-10-07T22:17:44.213Z,7.70
2017-10-07T22:20:13.436Z,8.53
2017-10-07T22:22:42.747Z,7.43
2017-10-07T22:25:14.158Z,7.50
2017-10-07T22:27:45.289Z,7.80
2017-10-07T22:30:14.527Z,10.33
2017-10-07T22:32:44.608Z,7.60
2017-10-07T22:35:13.857Z,7.60
2017-10-07T22:37:43.849Z,7.77
2017-10-07T22:40:13.095Z,6.93
2017-10-07T22:42:42.382Z,10.67
2017-10-07T22:45:12.511Z,9.07
2017-10-07T22:47:42.592Z,8.03
2017-10-07T22:50:12.583Z,7.53
2017-10-07T22:52:41.816Z,12.27
2017-10-07T22:55:11.061Z,7.80
2017-10-07T22:57:40.310Z,7.60
2017-10-07T23:00:10.351Z,9.43
2017-10-07T23:02:39.591Z,8.43
2017-10-07T23:05:09.061Z,7.70
2017-10-07T23:07:39.038Z,9.30
2017-10-07T23:10:09.034Z,9.83
2017-10-07T23:12:38.354Z,10.50
2017-10-07T23:15:08.356Z,11.93
2017-10-07T23:17:37.609Z,9.20
2017-10-07T23:20:06.821Z,8.77
2017-10-07T23:22:36.080Z,11.70
2017-10-07T23:25:05.312Z,12.30
2017-10-07T23:27:35.387Z,13.50
2017-10-07T23:30:04.675Z,16.50
2017-10-07T23:32:34.698Z,10.10
2017-10-07T23:35:04.721Z,10.60
2017-10-07T23:37:33.964Z,11.50
2017-10-07T23:40:03.245Z,9.37
2017-10-07T23:42:32.459Z,10.17
2017-10-07T23:45:01.681Z,10.17
2017-10-07T23:47:30.917Z,9.70
2017-10-07T23:50:00.159Z,11.43
2017-10-07T23:52:29.378Z,11.20
2017-10-07T23:54:58.637Z,11.40
2017-10-07T23:57:27.890Z,12.20
2017-10-07T23:59:57.914Z,13.10
